createdAt,value
2022-12-04T00:01:19.347Z,12.80
2022-12-04T00:03:47.118Z,13.63
2022-12-04T00:06:17.416Z,13.80
2022-12-04T00:08:45.976Z,12.73
2022-12-04T00:11:16.683Z,12.83
2022-12-04T00:13:44.400Z,11.83
2022-12-04T00:16:15.175Z,14.03
2022-12-04T00:18:44.336Z,13.57
2022-12-04T00:21:14.120Z,11.73
2022-12-04T00:23:42.413Z,13.63
2022-12-04T00:26:11.769Z,13.70
2022-12-04T00:28:40.253Z,13.07
2022-12-04T00:31:09.612Z,14.23
2022-12-04T00:33:38.274Z,13.20
2022-12-04T00:36:10.091Z,12.47
2022-12-04T00:38:38.557Z,13.17
2022-12-04T00:41:06.717Z,12.63
2022-12-04T00:43:34.653Z,12.90
2022-12-04T00:46:02.689Z,13.20
2022-12-04T00:48:30.484Z,12.73
2022-12-04T00:51:03.181Z,12.10
2022-12-04T00:53:33.005Z,13.13
2022-12-04T00:56:04.076Z,13.87
2022-12-04T00:58:32.080Z,13.27
2022-12-04T01:01:03.654Z,12.77
2022-12-04T01:03:31.570Z,13.03
2022-12-04T01:05:59.604Z,13.70
2022-12-04T01:08:27.573Z,14.10
2022-12-04T01:10:56.666Z,13.67
2022-12-04T01:13:25.565Z,13.30
2022-12-04T01:15:53.601Z,13.13
2022-12-04T01:18:21.368Z,14.33
2022-12-04T01:20:50.529Z,12.67
2022-12-04T01:23:19.254Z,14.13
2022-12-04T01:25:54.188Z,13.73
2022-12-04T01:28:23.742Z,14.07
2022-12-04T01:31:00.168Z,13.87
2022-12-04T01:33:28.095Z,13.50
2022-12-04T01:35:56.581Z,14.53
2022-12-04T01:38:24.968Z,13.40
2022-12-04T01:40:53.376Z,13.77
2022-12-04T01:43:23.665Z,14.10
2022-12-04T01:45:53.783Z,12.87
2022-12-04T01:48:26.419Z,13.43
2022-12-04T01:50:59.556Z,13.40
2022-12-04T01:53:28.050Z,13.43
2022-12-04T01:55:56.678Z,13.63
2022-12-04T01:58:30.204Z,13.80
2022-12-04T02:01:07.929Z,13.10
2022-12-04T02:03:38.244Z,13.23
2022-12-04T02:06:06.446Z,13.10
2022-12-04T02:08:35.300Z,14.10
2022-12-04T02:11:13.689Z,12.30
2022-12-04T02:13:53.946Z,12.20
2022-12-04T02:16:30.190Z,12.87
2022-12-04T02:19:04.061Z,12.63
2022-12-04T02:21:36.700Z,11.73
2022-12-04T02:24:22.593Z,12.97
2022-12-04T02:26:54.728Z,12.70
2022-12-04T02:29:32.794Z,12.87
2022-12-04T02:32:07.392Z,13.67
2022-12-04T02:34:42.808Z,12.90
2022-12-04T02:37:17.876Z,12.00
2022-12-04T02:39:53.331Z,12.50
2022-12-04T02:42:31.549Z,13.23
2022-12-04T02:45:04.634Z,13.97
2022-12-04T02:47:34.051Z,13.03
2022-12-04T02:50:05.861Z,13.10
2022-12-04T02:52:37.979Z,11.90
2022-12-04T02:55:09.672Z,11.17
2022-12-04T02:57:42.342Z,12.63
2022-12-04T03:00:12.796Z,13.30
2022-12-04T03:02:47.161Z,12.50
2022-12-04T03:05:19.717Z,12.63
2022-12-04T03:07:53.703Z,12.03
2022-12-04T03:10:26.263Z,11.87
2022-12-04T03:12:57.630Z,12.40
2022-12-04T03:15:31.288Z,12.03
2022-12-04T03:18:03.818Z,11.00
2022-12-04T03:20:34.197Z,11.43
2022-12-04T03:23:10.032Z,12.23
2022-12-04T03:25:47.091Z,11.60
2022-12-04T03:28:23.346Z,11.03
2022-12-04T03:30:58.923Z,11.80
2022-12-04T03:33:32.527Z,11.73
2022-12-04T03:36:08.323Z,11.00
2022-12-04T03:38:42.502Z,13.00
2022-12-04T03:41:18.992Z,10.83
2022-12-04T03:43:51.989Z,12.10
2022-12-04T03:46:28.489Z,11.33
2022-12-04T03:49:03.218Z,11.43
2022-12-04T03:51:36.154Z,10.53
2022-12-04T03:54:09.502Z,10.20
2022-12-04T03:56:42.094Z,11.47
2022-12-04T03:59:13.093Z,10.37
2022-12-04T04:01:47.585Z,10.63
2022-12-04T04:04:19.261Z,10.50
2022-12-04T04:06:54.560Z,11.33
2022-12-04T04:09:25.897Z,10.50
2022-12-04T04:11:58.033Z,10.00
2022-12-04T04:14:46.834Z,10.37
2022-12-04T04:17:39.070Z,9.83
2022-12-04T04:20:31.720Z,9.63
2022-12-04T04:23:19.754Z,9.53
2022-12-04T04:25:48.373Z,9.37
2022-12-04T04:28:30.588Z,9.77
2022-12-04T04:31:09.845Z,9.37
2022-12-04T04:33:47.485Z,9.60
2022-12-04T04:36:22.664Z,9.40
2022-12-04T04:38:57.797Z,9.53
2022-12-04T04:41:32.012Z,8.50
2022-12-04T04:44:09.548Z,9.17
2022-12-04T04:46:42.855Z,8.93
2022-12-04T04:49:15.981Z,9.13
2022-12-04T04:51:45.203Z,10.07
2022-12-04T04:54:15.713Z,8.90
2022-12-04T04:56:45.507Z,9.77
2022-12-04T04:59:14.070Z,9.43
2022-12-04T05:01:43.827Z,8.63
2022-12-04T05:04:13.183Z,8.97
2022-12-04T05:06:40.928Z,9.27
2022-12-04T05:09:08.681Z,9.40
2022-12-04T05:11:36.465Z,9.83
2022-12-04T05:14:05.893Z,9.17
2022-12-04T05:16:33.780Z,9.03
2022-12-04T05:19:19.313Z,8.93
2022-12-04T05:21:48.395Z,8.77
2022-12-04T05:24:16.128Z,9.10
2022-12-04T05:26:43.909Z,9.17
2022-12-04T05:29:11.611Z,8.60
2022-12-04T05:31:39.396Z,8.37
2022-12-04T05:34:07.247Z,8.30
2022-12-04T05:36:34.984Z,8.20
2022-12-04T05:39:04.247Z,8.23
2022-12-04T05:41:31.942Z,8.00
2022-12-04T05:43:59.746Z,7.63
2022-12-04T05:46:27.471Z,8.33
2022-12-04T05:48:55.245Z,9.10
2022-12-04T05:51:22.957Z,8.33
2022-12-04T05:53:52.747Z,8.07
2022-12-04T05:56:22.045Z,8.40
2022-12-04T05:58:49.828Z,8.23
2022-12-04T06:01:19.839Z,8.13
2022-12-04T06:03:47.745Z,8.43
2022-12-04T06:06:21.523Z,8.00
2022-12-04T06:08:50.266Z,7.43
2022-12-04T06:11:20.914Z,7.63
2022-12-04T06:13:50.283Z,8.27
2022-12-04T06:16:19.780Z,8.00
2022-12-04T06:18:51.604Z,7.47
2022-12-04T06:21:20.745Z,7.20
2022-12-04T06:23:48.769Z,7.30
2022-12-04T06:26:16.970Z,6.93
2022-12-04T06:28:45.208Z,7.03
2022-12-04T06:31:18.977Z,7.63
2022-12-04T06:33:47.178Z,8.20
2022-12-04T06:36:17.629Z,6.97
2022-12-04T06:38:45.884Z,6.73
2022-12-04T06:41:15.360Z,7.07
2022-12-04T06:43:43.585Z,7.50
2022-12-04T06:46:13.281Z,7.33
2022-12-04T06:48:43.109Z,8.07
2022-12-04T06:51:13.804Z,8.00
2022-12-04T06:53:42.566Z,8.37
2022-12-04T06:56:17.806Z,8.30
2022-12-04T06:58:47.928Z,9.33
2022-12-04T07:01:17.971Z,9.03
2022-12-04T07:03:51.683Z,9.07
2022-12-04T07:06:21.533Z,8.90
2022-12-04T07:08:54.334Z,9.10
2022-12-04T07:11:23.192Z,8.83
2022-12-04T07:13:53.144Z,8.67
2022-12-04T07:16:23.150Z,9.13
2022-12-04T07:18:54.254Z,8.40
2022-12-04T07:21:23.639Z,7.87
2022-12-04T07:23:52.614Z,8.50
2022-12-04T07:26:21.591Z,8.77
2022-12-04T07:28:50.024Z,8.40
2022-12-04T07:31:20.508Z,8.63
2022-12-04T07:33:49.385Z,9.43
2022-12-04T07:36:22.379Z,9.13
2022-12-04T07:38:51.144Z,9.23
2022-12-04T07:41:22.306Z,9.03
2022-12-04T07:43:50.036Z,8.43
2022-12-04T07:46:20.800Z,7.93
2022-12-04T07:48:48.677Z,8.03
2022-12-04T07:51:19.915Z,8.90
2022-12-04T07:53:48.244Z,9.20
2022-12-04T07:56:17.391Z,8.47
2022-12-04T07:58:45.419Z,9.07
2022-12-04T08:01:16.265Z,8.73
2022-12-04T08:03:48.556Z,8.50
2022-12-04T08:06:17.526Z,9.10
2022-12-04T08:08:47.132Z,8.73
2022-12-04T08:11:16.980Z,8.77
2022-12-04T08:13:45.205Z,9.27
2022-12-04T08:16:14.022Z,9.07
2022-12-04T08:18:46.536Z,8.77
2022-12-04T08:21:15.901Z,8.53
2022-12-04T08:23:44.722Z,8.77
2022-12-04T08:26:14.404Z,9.43
2022-12-04T08:28:45.269Z,9.10
2022-12-04T08:31:15.088Z,8.50
2022-12-04T08:33:44.160Z,9.40
2022-12-04T08:36:14.035Z,8.63
2022-12-04T08:38:42.279Z,9.50
2022-12-04T08:41:14.387Z,9.87
2022-12-04T08:43:42.600Z,9.00
2022-12-04T08:46:13.078Z,8.93
2022-12-04T08:48:41.426Z,8.47
2022-12-04T08:51:14.337Z,9.30
2022-12-04T08:53:42.950Z,9.33
2022-12-04T08:56:11.227Z,8.73
2022-12-04T08:58:40.596Z,8.83
2022-12-04T09:01:10.082Z,9.33
2022-12-04T09:03:38.440Z,8.13
2022-12-04T09:06:07.782Z,8.93
2022-12-04T09:08:36.589Z,8.17
2022-12-04T09:11:05.484Z,8.90
2022-12-04T09:13:33.258Z,8.20
2022-12-04T09:16:05.531Z,7.77
2022-12-04T09:18:33.661Z,8.43
2022-12-04T09:21:03.431Z,9.50
2022-12-04T09:23:31.198Z,8.87
2022-12-04T09:25:59.046Z,8.93
2022-12-04T09:28:27.167Z,8.40
2022-12-04T09:30:59.816Z,8.83
2022-12-04T09:33:30.529Z,9.73
2022-12-04T09:36:00.521Z,9.23
2022-12-04T09:38:28.619Z,8.93
2022-12-04T09:41:03.703Z,9.60
2022-12-04T09:43:35.581Z,9.57
2022-12-04T09:46:11.245Z,9.97
2022-12-04T09:48:43.970Z,9.57
2022-12-04T09:51:18.657Z,8.80
2022-12-04T09:53:49.810Z,8.63
2022-12-04T09:56:20.772Z,9.47
2022-12-04T09:58:52.095Z,9.20
2022-12-04T10:01:24.341Z,9.33
2022-12-04T10:03:56.896Z,9.80
2022-12-04T10:06:33.200Z,10.50
2022-12-04T10:09:04.796Z,9.50
2022-12-04T10:11:49.638Z,9.43
2022-12-04T10:14:38.780Z,8.30
2022-12-04T10:17:27.838Z,9.60
2022-12-04T10:20:13.652Z,8.70
2022-12-04T10:22:54.651Z,9.03
2022-12-04T10:25:24.015Z,9.40
2022-12-04T10:27:57.007Z,9.13
2022-12-04T10:30:27.506Z,9.67
2022-12-04T10:33:00.852Z,9.30
2022-12-04T10:35:32.237Z,9.37
2022-12-04T10:38:04.325Z,9.77
2022-12-04T10:40:36.732Z,9.47
2022-12-04T10:43:12.294Z,9.50
2022-12-04T10:45:40.087Z,9.47
2022-12-04T10:48:17.589Z,9.40
2022-12-04T10:50:46.709Z,8.90
2022-12-04T10:53:17.355Z,9.80
2022-12-04T10:55:45.221Z,10.00
2022-12-04T10:58:17.560Z,9.43
2022-12-04T11:00:46.775Z,9.60
2022-12-04T11:03:25.925Z,8.93
2022-12-04T11:05:57.727Z,9.30
2022-12-04T11:08:31.198Z,8.97
2022-12-04T11:11:02.215Z,8.90
2022-12-04T11:13:30.593Z,8.93
2022-12-04T11:15:59.352Z,9.00
2022-12-04T11:18:29.197Z,9.37
2022-12-04T11:21:01.669Z,8.87
2022-12-04T11:23:33.136Z,8.77
2022-12-04T11:26:05.803Z,9.63
2022-12-04T11:28:43.079Z,8.87
2022-12-04T11:31:17.725Z,8.90
2022-12-04T11:33:49.084Z,8.67
2022-12-04T11:36:24.075Z,7.77
2022-12-04T11:38:54.360Z,8.67
2022-12-04T11:41:28.107Z,8.67
2022-12-04T11:44:00.229Z,8.13
2022-12-04T11:46:31.687Z,8.10
2022-12-04T11:48:59.980Z,8.83
2022-12-04T11:51:43.549Z,8.83
2022-12-04T11:54:23.612Z,8.87
2022-12-04T11:57:00.195Z,8.17
2022-12-04T11:59:51.921Z,9.23
2022-12-04T12:02:45.603Z,9.50
2022-12-04T12:05:38.139Z,9.57
2022-12-04T12:08:21.980Z,8.83
2022-12-04T12:11:00.624Z,9.63
2022-12-04T12:13:36.411Z,8.80
2022-12-04T12:16:16.795Z,8.50
2022-12-04T12:18:59.257Z,8.47
2022-12-04T12:21:29.031Z,8.47
2022-12-04T12:24:18.363Z,9.00
2022-12-04T12:26:55.185Z,7.83
2022-12-04T12:29:44.138Z,9.13
2022-12-04T12:32:30.379Z,8.50
2022-12-04T12:34:59.257Z,8.57
2022-12-04T12:37:32.090Z,8.50
2022-12-04T12:40:07.609Z,9.27
2022-12-04T12:42:39.691Z,9.03
2022-12-04T12:45:27.650Z,9.07
2022-12-04T12:48:00.166Z,9.87
2022-12-04T12:50:36.883Z,9.10
2022-12-04T12:53:19.842Z,9.13
2022-12-04T12:56:01.949Z,8.17
2022-12-04T12:58:39.626Z,8.73
2022-12-04T13:01:14.446Z,8.97
2022-12-04T13:03:51.478Z,8.60
2022-12-04T13:06:24.353Z,8.47
2022-12-04T13:09:00.445Z,8.33
2022-12-04T13:11:32.213Z,9.43
2022-12-04T13:14:02.409Z,8.80
2022-12-04T13:16:36.991Z,9.57
2022-12-04T13:19:13.447Z,8.20
2022-12-04T13:21:46.077Z,9.33
2022-12-04T13:24:43.439Z,8.47
2022-12-04T13:27:21.267Z,8.23
2022-12-04T13:30:02.780Z,9.10
2022-12-04T13:32:55.500Z,8.70
2022-12-04T13:35:37.268Z,8.97
2022-12-04T13:38:24.013Z,9.20
2022-12-04T13:40:55.022Z,9.03
2022-12-04T13:43:34.645Z,8.97
2022-12-04T13:46:05.604Z,9.03
2022-12-04T13:48:37.510Z,9.20
2022-12-04T13:51:21.573Z,10.00
2022-12-04T13:54:00.953Z,9.47
2022-12-04T13:56:30.612Z,8.37
2022-12-04T13:59:05.485Z,9.30
2022-12-04T14:01:39.967Z,8.90
2022-12-04T14:04:08.494Z,8.47
2022-12-04T14:06:39.382Z,9.00
2022-12-04T14:09:10.276Z,8.53
2022-12-04T14:11:46.096Z,9.67
2022-12-04T14:14:26.643Z,9.23
2022-12-04T14:16:55.586Z,9.00
2022-12-04T14:19:30.617Z,9.73
2022-12-04T14:21:58.599Z,9.27
2022-12-04T14:24:37.488Z,9.40
2022-12-04T14:27:34.863Z,8.73
2022-12-04T14:30:04.137Z,9.43
2022-12-04T14:32:35.051Z,8.90
2022-12-04T14:35:03.750Z,8.80
2022-12-04T14:37:36.417Z,8.27
2022-12-04T14:40:07.259Z,9.23
2022-12-04T14:42:39.035Z,8.83
2022-12-04T14:45:20.883Z,8.93
2022-12-04T14:47:59.694Z,8.60
2022-12-04T14:50:33.056Z,8.87
2022-12-04T14:53:10.068Z,9.10
2022-12-04T14:55:47.082Z,9.43
2022-12-04T14:58:34.585Z,9.30
2022-12-04T15:01:04.894Z,9.83
2022-12-04T15:03:36.901Z,9.60
2022-12-04T15:06:08.076Z,9.60
2022-12-04T15:08:36.266Z,9.23
2022-12-04T15:11:24.689Z,9.53
2022-12-04T15:13:53.914Z,9.07
2022-12-04T15:16:23.501Z,10.17
2022-12-04T15:18:55.509Z,9.13
2022-12-04T15:21:24.374Z,9.67
2022-12-04T15:23:52.098Z,9.23
2022-12-04T15:26:22.972Z,9.93
2022-12-04T15:28:55.349Z,9.90
2022-12-04T15:31:26.552Z,10.43
2022-12-04T15:33:58.271Z,9.63
2022-12-04T15:36:45.759Z,9.50
2022-12-04T15:39:18.057Z,10.33
2022-12-04T15:41:45.775Z,10.77
2022-12-04T15:44:27.669Z,10.80
2022-12-04T15:46:57.131Z,10.40
2022-12-04T15:49:28.101Z,9.67
2022-12-04T15:52:06.665Z,10.77
2022-12-04T15:54:36.185Z,10.20
2022-12-04T15:57:07.602Z,9.87
2022-12-04T15:59:37.189Z,10.43
2022-12-04T16:02:08.917Z,10.60
2022-12-04T16:04:41.101Z,10.30
2022-12-04T16:07:21.903Z,12.17
2022-12-04T16:09:59.531Z,10.90
2022-12-04T16:12:32.780Z,11.27
2022-12-04T16:15:01.933Z,11.67
2022-12-04T16:17:32.609Z,11.27
2022-12-04T16:20:01.663Z,11.30
2022-12-04T16:22:31.425Z,12.07
2022-12-04T16:24:59.494Z,11.27
2022-12-04T16:27:27.583Z,12.47
2022-12-04T16:29:55.323Z,11.63
2022-12-04T16:32:29.928Z,11.67
2022-12-04T16:34:57.941Z,12.83
2022-12-04T16:37:26.353Z,13.50
2022-12-04T16:39:54.085Z,12.03
2022-12-04T16:42:24.563Z,13.23
2022-12-04T16:44:52.673Z,12.67
2022-12-04T16:47:20.570Z,13.50
2022-12-04T16:49:53.291Z,12.57
2022-12-04T16:52:21.769Z,13.43
2022-12-04T16:54:49.497Z,13.67
2022-12-04T16:57:17.261Z,13.27
2022-12-04T16:59:45.010Z,13.27
2022-12-04T17:02:17.255Z,13.20
2022-12-04T17:04:57.005Z,13.00
2022-12-04T17:07:27.387Z,13.63
2022-12-04T17:09:55.095Z,13.30
2022-12-04T17:12:22.797Z,13.60
2022-12-04T17:14:50.822Z,13.33
2022-12-04T17:17:18.552Z,14.27
2022-12-04T17:19:46.516Z,13.67
2022-12-04T17:22:16.201Z,14.73
2022-12-04T17:24:57.163Z,13.47
2022-12-04T17:27:25.912Z,14.37
2022-12-04T17:29:53.699Z,14.17
2022-12-04T17:32:21.476Z,13.60
2022-12-04T17:34:49.310Z,13.47
2022-12-04T17:37:18.330Z,14.17
2022-12-04T17:39:46.120Z,14.57
2022-12-04T17:42:16.514Z,14.97
2022-12-04T17:44:44.428Z,14.70
2022-12-04T17:47:12.733Z,14.33
2022-12-04T17:49:40.553Z,14.50
2022-12-04T17:52:08.405Z,14.47
2022-12-04T17:54:37.647Z,13.70
2022-12-04T17:57:05.370Z,14.40
2022-12-04T17:59:33.065Z,13.70
2022-12-04T18:02:00.827Z,14.50
2022-12-04T18:04:28.513Z,13.97
2022-12-04T18:06:56.461Z,15.30
2022-12-04T18:09:24.412Z,13.70
2022-12-04T18:11:53.604Z,13.63
2022-12-04T18:14:23.465Z,14.07
2022-12-04T18:16:53.415Z,14.13
2022-12-04T18:19:23.355Z,13.10
2022-12-04T18:21:51.133Z,14.20
2022-12-04T18:24:19.248Z,13.70
2022-12-04T18:26:49.195Z,13.43
2022-12-04T18:29:19.731Z,13.60
2022-12-04T18:31:48.009Z,13.73
2022-12-04T18:34:16.230Z,13.80
2022-12-04T18:36:45.344Z,14.50
2022-12-04T18:39:15.627Z,13.40
2022-12-04T18:41:43.996Z,13.67
2022-12-04T18:44:12.302Z,13.37
2022-12-04T18:46:42.043Z,13.80
2022-12-04T18:49:11.390Z,14.37
2022-12-04T18:51:40.655Z,13.80
2022-12-04T18:54:11.418Z,11.67
2022-12-04T18:56:39.682Z,13.47
2022-12-04T18:59:09.776Z,12.13
2022-12-04T19:01:37.910Z,14.43
2022-12-04T19:04:09.363Z,13.67
2022-12-04T19:06:40.220Z,13.33
2022-12-04T19:09:11.212Z,12.83
2022-12-04T19:11:39.813Z,13.07
2022-12-04T19:14:17.710Z,12.67
2022-12-04T19:16:49.293Z,12.87
2022-12-04T19:19:18.833Z,13.03
2022-12-04T19:21:46.643Z,13.43
2022-12-04T19:24:14.455Z,13.80
2022-12-04T19:26:42.924Z,13.33
2022-12-04T19:29:13.716Z,13.53
2022-12-04T19:31:41.686Z,12.83
2022-12-04T19:34:09.521Z,13.10
2022-12-04T19:36:38.716Z,14.23
2022-12-04T19:39:07.228Z,13.67
2022-12-04T19:41:37.066Z,13.63
2022-12-04T19:44:20.098Z,12.43
2022-12-04T19:46:53.200Z,13.80
2022-12-04T19:49:20.902Z,13.07
2022-12-04T19:51:50.601Z,13.17
2022-12-04T19:54:19.226Z,12.67
2022-12-04T19:56:51.104Z,12.10
2022-12-04T19:59:19.630Z,12.73
2022-12-04T20:01:48.079Z,13.60
2022-12-04T20:04:15.928Z,13.30
2022-12-04T20:06:45.747Z,12.20
2022-12-04T20:09:18.711Z,12.33
2022-12-04T20:11:46.441Z,12.77
2022-12-04T20:14:14.493Z,12.80
2022-12-04T20:16:43.026Z,12.67
2022-12-04T20:19:16.793Z,12.40
2022-12-04T20:21:45.108Z,12.10
2022-12-04T20:24:16.290Z,12.07
2022-12-04T20:26:46.239Z,13.00
2022-12-04T20:29:16.085Z,12.33
2022-12-04T20:31:46.076Z,13.20
2022-12-04T20:34:17.477Z,11.63
2022-12-04T20:36:47.093Z,12.13
2022-12-04T20:39:20.129Z,11.77
2022-12-04T20:41:48.527Z,12.50
2022-12-04T20:44:18.797Z,12.17
2022-12-04T20:46:46.913Z,11.93
2022-12-04T20:49:21.301Z,12.33
2022-12-04T20:51:51.456Z,12.77
2022-12-04T20:54:22.651Z,13.00
2022-12-04T20:56:52.671Z,13.47
2022-12-04T20:59:22.237Z,12.90
2022-12-04T21:01:51.399Z,14.33
2022-12-04T21:04:19.739Z,12.73
2022-12-04T21:06:47.806Z,13.03
2022-12-04T21:09:17.668Z,14.27
2022-12-04T21:11:48.185Z,12.50
2022-12-04T21:14:35.787Z,13.47
2022-12-04T21:17:03.870Z,12.80
2022-12-04T21:19:32.141Z,13.00
2022-12-04T21:22:00.048Z,12.90
2022-12-04T21:24:28.666Z,13.17
2022-12-04T21:26:57.673Z,13.07
2022-12-04T21:29:25.446Z,13.20
2022-12-04T21:31:53.216Z,14.63
2022-12-04T21:34:20.951Z,13.10
2022-12-04T21:36:48.757Z,13.50
2022-12-04T21:39:16.862Z,13.37
2022-12-04T21:42:02.128Z,13.33
2022-12-04T21:44:31.456Z,13.90
2022-12-04T21:46:59.428Z,13.90
2022-12-04T21:49:27.625Z,13.27
2022-12-04T21:51:58.104Z,13.70
2022-12-04T21:54:27.125Z,13.07
2022-12-04T21:56:55.534Z,13.77
2022-12-04T21:59:23.582Z,13.63
2022-12-04T22:01:53.244Z,13.20
2022-12-04T22:04:21.031Z,14.87
2022-12-04T22:06:48.717Z,13.83
2022-12-04T22:09:16.558Z,14.37
2022-12-04T22:11:44.641Z,14.33
2022-12-04T22:14:13.534Z,13.63
2022-12-04T22:16:43.029Z,14.47
2022-12-04T22:19:13.280Z,14.07
2022-12-04T22:21:41.309Z,13.97
2022-12-04T22:24:10.765Z,14.27
2022-12-04T22:26:39.404Z,14.40
2022-12-04T22:29:34.110Z,14.60
2022-12-04T22:31:55.371Z,15.30
2022-12-04T22:34:24.525Z,15.97
2022-12-04T22:36:52.256Z,16.50
2022-12-04T22:39:19.970Z,16.60
2022-12-04T22:41:47.763Z,16.40
2022-12-04T22:44:15.445Z,16.63
2022-12-04T22:46:43.308Z,16.43
2022-12-04T22:49:11.128Z,15.93
2022-12-04T22:51:40.248Z,17.50
2022-12-04T22:54:08.282Z,17.60
2022-12-04T22:56:35.981Z,17.27
2022-12-04T22:59:03.809Z,17.07
2022-12-04T23:01:33.609Z,17.03
2022-12-04T23:04:02.709Z,17.73
2022-12-04T23:06:32.422Z,17.20
2022-12-04T23:09:03.629Z,17.77
2022-12-04T23:11:31.614Z,17.23
2022-12-04T23:14:01.063Z,17.93
2022-12-04T23:19:13.135Z,17.07
2022-12-04T23:21:41.769Z,18.17
2022-12-04T23:24:11.503Z,19.17
2022-12-04T23:26:41.656Z,18.77
2022-12-04T23:29:29.668Z,18.00
2022-12-04T23:31:57.303Z,17.87
2022-12-04T23:34:25.590Z,17.60
2022-12-04T23:36:53.356Z,18.20
2022-12-04T23:39:22.403Z,18.43
2022-12-04T23:41:50.145Z,18.13
2022-12-04T23:44:17.934Z,17.63
2022-12-04T23:46:45.658Z,17.60
2022-12-04T23:49:13.604Z,17.90
2022-12-04T23:51:41.326Z,16.87
2022-12-04T23:54:09.085Z,18.00
2022-12-04T23:56:38.157Z,18.50
2022-12-04T23:59:05.877Z,18.43
